sensor_id;sensor_type;location;lat;lon;timestamp;P1;durP1;ratioP1;P2;durP2;ratioP2
18445;SDS011;9352;50.888;4.466;2023-02-28T00:01:08;10.93;;;5.90;;
18445;SDS011;9352;50.888;4.466;2023-02-28T00:03:35;12.57;;;5.90;;
18445;SDS011;9352;50.888;4.466;2023-02-28T00:06:02;11.27;;;5.70;;
18445;SDS011;9352;50.888;4.466;2023-02-28T00:08:29;14.73;;;6.50;;
18445;SDS011;9352;50.888;4.466;2023-02-28T00:11:01;14.77;;;6.63;;
18445;SDS011;9352;50.888;4.466;2023-02-28T00:13:29;13.27;;;6.37;;
18445;SDS011;9352;50.888;4.466;2023-02-28T00:15:59;11.23;;;6.10;;
18445;SDS011;9352;50.888;4.466;2023-02-28T00:18:26;10.10;;;5.83;;
18445;SDS011;9352;50.888;4.466;2023-02-28T00:20:53;10.63;;;5.97;;
18445;SDS011;9352;50.888;4.466;2023-02-28T00:23:20;12.43;;;5.43;;
18445;SDS011;9352;50.888;4.466;2023-02-28T00:25:47;9.87;;;5.97;;
18445;SDS011;9352;50.888;4.466;2023-02-28T00:28:16;11.47;;;6.20;;
18445;SDS011;9352;50.888;4.466;2023-02-28T00:30:43;10.33;;;6.23;;
18445;SDS011;9352;50.888;4.466;2023-02-28T00:33:10;14.73;;;6.27;;
18445;SDS011;9352;50.888;4.466;2023-02-28T00:35:37;12.50;;;5.60;;
18445;SDS011;9352;50.888;4.466;2023-02-28T00:38:04;11.70;;;5.90;;
18445;SDS011;9352;50.888;4.466;2023-02-28T00:40:31;11.77;;;6.50;;
18445;SDS011;9352;50.888;4.466;2023-02-28T00:42:58;11.20;;;6.20;;
18445;SDS011;9352;50.888;4.466;2023-02-28T00:45:26;12.07;;;5.40;;
18445;SDS011;9352;50.888;4.466;2023-02-28T00:47:53;9.70;;;5.77;;
18445;SDS011;9352;50.888;4.466;2023-02-28T00:50:20;12.07;;;6.13;;
18445;SDS011;9352;50.888;4.466;2023-02-28T00:52:47;10.03;;;6.30;;
18445;SDS011;9352;50.888;4.466;2023-02-28T00:55:14;10.63;;;5.57;;
18445;SDS011;9352;50.888;4.466;2023-02-28T00:57:41;12.80;;;6.43;;
18445;SDS011;9352;50.888;4.466;2023-02-28T01:00:09;9.23;;;5.90;;
18445;SDS011;9352;50.888;4.466;2023-02-28T01:02:38;13.97;;;6.03;;
18445;SDS011;9352;50.888;4.466;2023-02-28T01:05:05;10.60;;;5.80;;
18445;SDS011;9352;50.888;4.466;2023-02-28T01:07:32;11.23;;;6.03;;
18445;SDS011;9352;50.888;4.466;2023-02-28T01:09:59;15.10;;;5.80;;
18445;SDS011;9352;50.888;4.466;2023-02-28T01:12:26;10.90;;;5.80;;
18445;SDS011;9352;50.888;4.466;2023-02-28T01:14:53;9.67;;;5.90;;
18445;SDS011;9352;50.888;4.466;2023-02-28T01:17:20;11.87;;;6.30;;
18445;SDS011;9352;50.888;4.466;2023-02-28T01:19:48;14.40;;;6.90;;
18445;SDS011;9352;50.888;4.466;2023-02-28T01:22:15;12.57;;;6.20;;
18445;SDS011;9352;50.888;4.466;2023-02-28T01:24:42;12.37;;;6.60;;
18445;SDS011;9352;50.888;4.466;2023-02-28T01:27:09;10.27;;;5.80;;
18445;SDS011;9352;50.888;4.466;2023-02-28T01:29:36;12.77;;;5.90;;
18445;SDS011;9352;50.888;4.466;2023-02-28T01:32:03;15.50;;;6.60;;
18445;SDS011;9352;50.888;4.466;2023-02-28T01:34:30;13.13;;;6.80;;
18445;SDS011;9352;50.888;4.466;2023-02-28T01:36:58;13.83;;;6.50;;
18445;SDS011;9352;50.888;4.466;2023-02-28T01:39:25;14.20;;;6.63;;
18445;SDS011;9352;50.888;4.466;2023-02-28T01:41:52;10.87;;;6.77;;
18445;SDS011;9352;50.888;4.466;2023-02-28T01:47:25;13.53;;;6.87;;
18445;SDS011;9352;50.888;4.466;2023-02-28T01:49:56;10.47;;;6.63;;
18445;SDS011;9352;50.888;4.466;2023-02-28T01:52:26;11.03;;;6.90;;
18445;SDS011;9352;50.888;4.466;2023-02-28T01:54:54;11.30;;;6.63;;
18445;SDS011;9352;50.888;4.466;2023-02-28T01:57:23;11.53;;;7.10;;
18445;SDS011;9352;50.888;4.466;2023-02-28T01:59:54;12.37;;;7.00;;
18445;SDS011;9352;50.888;4.466;2023-02-28T02:02:25;11.40;;;7.20;;
18445;SDS011;9352;50.888;4.466;2023-02-28T02:04:54;11.67;;;7.37;;
18445;SDS011;9352;50.888;4.466;2023-02-28T02:07:25;17.57;;;7.53;;
18445;SDS011;9352;50.888;4.466;2023-02-28T02:10:03;12.33;;;7.50;;
18445;SDS011;9352;50.888;4.466;2023-02-28T02:12:36;15.93;;;7.30;;
18445;SDS011;9352;50.888;4.466;2023-02-28T02:15:19;12.43;;;6.73;;
18445;SDS011;9352;50.888;4.466;2023-02-28T02:17:51;12.17;;;7.20;;
18445;SDS011;9352;50.888;4.466;2023-02-28T02:20:41;14.80;;;7.20;;
18445;SDS011;9352;50.888;4.466;2023-02-28T02:26:28;16.23;;;7.50;;
18445;SDS011;9352;50.888;4.466;2023-02-28T02:29:22;14.53;;;7.63;;
18445;SDS011;9352;50.888;4.466;2023-02-28T02:35:26;16.37;;;7.57;;
18445;SDS011;9352;50.888;4.466;2023-02-28T02:37:57;10.40;;;6.90;;
18445;SDS011;9352;50.888;4.466;2023-02-28T02:40:33;17.13;;;8.20;;
18445;SDS011;9352;50.888;4.466;2023-02-28T02:43:07;13.37;;;7.70;;
18445;SDS011;9352;50.888;4.466;2023-02-28T02:45:40;16.80;;;8.20;;
18445;SDS011;9352;50.888;4.466;2023-02-28T02:48:13;22.90;;;8.33;;
18445;SDS011;9352;50.888;4.466;2023-02-28T02:50:45;12.13;;;8.07;;
18445;SDS011;9352;50.888;4.466;2023-02-28T02:53:15;15.70;;;8.03;;
18445;SDS011;9352;50.888;4.466;2023-02-28T02:55:47;19.23;;;8.13;;
18445;SDS011;9352;50.888;4.466;2023-02-28T02:58:20;14.77;;;8.40;;
18445;SDS011;9352;50.888;4.466;2023-02-28T03:00:50;14.13;;;8.07;;
18445;SDS011;9352;50.888;4.466;2023-02-28T03:03:20;14.30;;;8.07;;
18445;SDS011;9352;50.888;4.466;2023-02-28T03:05:55;20.17;;;8.13;;
18445;SDS011;9352;50.888;4.466;2023-02-28T03:08:23;15.73;;;8.70;;
18445;SDS011;9352;50.888;4.466;2023-02-28T03:10:51;16.33;;;8.50;;
18445;SDS011;9352;50.888;4.466;2023-02-28T03:16:35;16.33;;;8.80;;
18445;SDS011;9352;50.888;4.466;2023-02-28T03:22:09;18.47;;;8.83;;
18445;SDS011;9352;50.888;4.466;2023-02-28T03:24:43;15.70;;;8.67;;
18445;SDS011;9352;50.888;4.466;2023-02-28T03:27:17;16.07;;;8.60;;
18445;SDS011;9352;50.888;4.466;2023-02-28T03:29:50;17.60;;;8.83;;
18445;SDS011;9352;50.888;4.466;2023-02-28T03:32:25;16.87;;;9.10;;
18445;SDS011;9352;50.888;4.466;2023-02-28T03:34:56;21.20;;;9.00;;
18445;SDS011;9352;50.888;4.466;2023-02-28T03:37:31;18.83;;;9.53;;
18445;SDS011;9352;50.888;4.466;2023-02-28T03:40:02;22.07;;;9.97;;
18445;SDS011;9352;50.888;4.466;2023-02-28T03:42:33;22.17;;;9.90;;
18445;SDS011;9352;50.888;4.466;2023-02-28T03:45:04;20.17;;;9.43;;
18445;SDS011;9352;50.888;4.466;2023-02-28T03:47:35;18.73;;;9.47;;
18445;SDS011;9352;50.888;4.466;2023-02-28T03:50:06;18.77;;;9.50;;
18445;SDS011;9352;50.888;4.466;2023-02-28T03:52:38;16.17;;;9.37;;
18445;SDS011;9352;50.888;4.466;2023-02-28T03:55:11;20.57;;;9.73;;
18445;SDS011;9352;50.888;4.466;2023-02-28T03:57:43;18.83;;;9.53;;
18445;SDS011;9352;50.888;4.466;2023-02-28T04:00:24;20.00;;;9.70;;
18445;SDS011;9352;50.888;4.466;2023-02-28T04:02:54;21.67;;;9.60;;
18445;SDS011;9352;50.888;4.466;2023-02-28T04:05:21;20.90;;;9.67;;
18445;SDS011;9352;50.888;4.466;2023-02-28T04:07:50;21.03;;;10.70;;
18445;SDS011;9352;50.888;4.466;2023-02-28T04:10:18;16.80;;;9.40;;
18445;SDS011;9352;50.888;4.466;2023-02-28T04:12:45;23.93;;;10.40;;
18445;SDS011;9352;50.888;4.466;2023-02-28T04:15:11;23.70;;;10.30;;
18445;SDS011;9352;50.888;4.466;2023-02-28T04:17:38;18.20;;;9.63;;
18445;SDS011;9352;50.888;4.466;2023-02-28T04:20:06;24.43;;;9.83;;
18445;SDS011;9352;50.888;4.466;2023-02-28T04:22:35;25.93;;;10.27;;
18445;SDS011;9352;50.888;4.466;2023-02-28T04:25:05;22.23;;;10.23;;
18445;SDS011;9352;50.888;4.466;2023-02-28T04:27:33;19.77;;;9.83;;
18445;SDS011;9352;50.888;4.466;2023-02-28T04:30:00;22.77;;;10.33;;
18445;SDS011;9352;50.888;4.466;2023-02-28T04:32:27;19.50;;;9.77;;
18445;SDS011;9352;50.888;4.466;2023-02-28T04:34:53;19.30;;;10.27;;
18445;SDS011;9352;50.888;4.466;2023-02-28T04:37:20;17.57;;;9.83;;
18445;SDS011;9352;50.888;4.466;2023-02-28T04:39:52;17.03;;;9.77;;
18445;SDS011;9352;50.888;4.466;2023-02-28T04:42:21;17.80;;;9.67;;
18445;SDS011;9352;50.888;4.466;2023-02-28T04:44:47;19.50;;;10.17;;
18445;SDS011;9352;50.888;4.466;2023-02-28T04:47:14;20.80;;;9.93;;
18445;SDS011;9352;50.888;4.466;2023-02-28T04:49:41;23.33;;;10.37;;
18445;SDS011;9352;50.888;4.466;2023-02-28T04:52:08;18.37;;;10.40;;
18445;SDS011;9352;50.888;4.466;2023-02-28T04:54:35;20.83;;;10.30;;
18445;SDS011;9352;50.888;4.466;2023-02-28T04:57:03;27.63;;;10.70;;
18445;SDS011;9352;50.888;4.466;2023-02-28T04:59:32;22.67;;;10.90;;
18445;SDS011;9352;50.888;4.466;2023-02-28T05:01:59;22.83;;;10.03;;
18445;SDS011;9352;50.888;4.466;2023-02-28T05:04:31;20.23;;;9.83;;
18445;SDS011;9352;50.888;4.466;2023-02-28T05:06:59;18.80;;;10.10;;
18445;SDS011;9352;50.888;4.466;2023-02-28T05:09:26;22.63;;;10.20;;
18445;SDS011;9352;50.888;4.466;2023-02-28T05:11:54;20.93;;;9.93;;
18445;SDS011;9352;50.888;4.466;2023-02-28T05:14:21;17.43;;;9.27;;
18445;SDS011;9352;50.888;4.466;2023-02-28T05:16:50;19.00;;;10.07;;
18445;SDS011;9352;50.888;4.466;2023-02-28T05:19:16;24.87;;;11.03;;
18445;SDS011;9352;50.888;4.466;2023-02-28T05:21:48;26.43;;;12.47;;
18445;SDS011;9352;50.888;4.466;2023-02-28T05:24:17;23.97;;;10.97;;
18445;SDS011;9352;50.888;4.466;2023-02-28T05:26:47;19.93;;;10.17;;
18445;SDS011;9352;50.888;4.466;2023-02-28T05:29:15;18.27;;;9.63;;
18445;SDS011;9352;50.888;4.466;2023-02-28T05:31:42;20.70;;;10.43;;
18445;SDS011;9352;50.888;4.466;2023-02-28T05:34:10;22.13;;;10.37;;
18445;SDS011;9352;50.888;4.466;2023-02-28T05:36:38;22.37;;;10.50;;
18445;SDS011;9352;50.888;4.466;2023-02-28T05:39:05;19.07;;;9.50;;
18445;SDS011;9352;50.888;4.466;2023-02-28T05:41:37;21.17;;;9.80;;
18445;SDS011;9352;50.888;4.466;2023-02-28T05:44:05;19.73;;;9.53;;
18445;SDS011;9352;50.888;4.466;2023-02-28T05:46:32;22.23;;;9.73;;
18445;SDS011;9352;50.888;4.466;2023-02-28T05:48:59;18.23;;;9.80;;
18445;SDS011;9352;50.888;4.466;2023-02-28T05:51:27;20.13;;;10.13;;
18445;SDS011;9352;50.888;4.466;2023-02-28T05:53:54;18.57;;;9.00;;
18445;SDS011;9352;50.888;4.466;2023-02-28T05:56:24;20.60;;;9.93;;
18445;SDS011;9352;50.888;4.466;2023-02-28T05:58:51;22.33;;;9.77;;
18445;SDS011;9352;50.888;4.466;2023-02-28T06:01:25;17.53;;;9.70;;
18445;SDS011;9352;50.888;4.466;2023-02-28T06:03:58;15.07;;;9.33;;
18445;SDS011;9352;50.888;4.466;2023-02-28T06:06:27;17.93;;;9.27;;
18445;SDS011;9352;50.888;4.466;2023-02-28T06:08:55;20.00;;;9.73;;
18445;SDS011;9352;50.888;4.466;2023-02-28T06:11:22;17.80;;;9.23;;
18445;SDS011;9352;50.888;4.466;2023-02-28T06:13:52;17.93;;;9.63;;
18445;SDS011;9352;50.888;4.466;2023-02-28T06:16:20;27.97;;;9.43;;
18445;SDS011;9352;50.888;4.466;2023-02-28T06:18:47;22.03;;;10.03;;
18445;SDS011;9352;50.888;4.466;2023-02-28T06:21:14;17.33;;;9.63;;
18445;SDS011;9352;50.888;4.466;2023-02-28T06:23:42;18.20;;;9.60;;
18445;SDS011;9352;50.888;4.466;2023-02-28T06:26:09;17.60;;;9.93;;
18445;SDS011;9352;50.888;4.466;2023-02-28T06:28:36;17.10;;;9.17;;
18445;SDS011;9352;50.888;4.466;2023-02-28T06:31:06;20.93;;;10.07;;
18445;SDS011;9352;50.888;4.466;2023-02-28T06:33:34;22.40;;;9.67;;
18445;SDS011;9352;50.888;4.466;2023-02-28T06:36:01;18.07;;;9.93;;
18445;SDS011;9352;50.888;4.466;2023-02-28T06:38:28;26.37;;;8.90;;
18445;SDS011;9352;50.888;4.466;2023-02-28T06:40:56;16.60;;;9.43;;
18445;SDS011;9352;50.888;4.466;2023-02-28T06:43:25;21.27;;;9.63;;
18445;SDS011;9352;50.888;4.466;2023-02-28T06:45:54;25.93;;;9.37;;
18445;SDS011;9352;50.888;4.466;2023-02-28T06:48:21;19.37;;;9.80;;
18445;SDS011;9352;50.888;4.466;2023-02-28T06:50:48;15.13;;;8.97;;
18445;SDS011;9352;50.888;4.466;2023-02-28T06:53:15;28.13;;;9.83;;
18445;SDS011;9352;50.888;4.466;2023-02-28T06:55:42;18.10;;;9.20;;
18445;SDS011;9352;50.888;4.466;2023-02-28T06:58:11;18.20;;;9.13;;
18445;SDS011;9352;50.888;4.466;2023-02-28T07:00:40;18.13;;;8.93;;
18445;SDS011;9352;50.888;4.466;2023-02-28T07:03:07;30.30;;;9.87;;
18445;SDS011;9352;50.888;4.466;2023-02-28T07:05:34;36.93;;;9.53;;
18445;SDS011;9352;50.888;4.466;2023-02-28T07:08:02;23.33;;;9.33;;
18445;SDS011;9352;50.888;4.466;2023-02-28T07:10:31;21.60;;;8.90;;
18445;SDS011;9352;50.888;4.466;2023-02-28T07:12:58;20.13;;;8.93;;
18445;SDS011;9352;50.888;4.466;2023-02-28T07:15:26;15.37;;;8.93;;
18445;SDS011;9352;50.888;4.466;2023-02-28T07:17:53;21.93;;;9.13;;
18445;SDS011;9352;50.888;4.466;2023-02-28T07:20:21;18.80;;;8.50;;
18445;SDS011;9352;50.888;4.466;2023-02-28T07:22:48;14.70;;;8.40;;
18445;SDS011;9352;50.888;4.466;2023-02-28T07:25:21;18.47;;;8.63;;
18445;SDS011;9352;50.888;4.466;2023-02-28T07:27:48;18.13;;;8.97;;
18445;SDS011;9352;50.888;4.466;2023-02-28T07:30:15;13.13;;;8.10;;
18445;SDS011;9352;50.888;4.466;2023-02-28T07:32:44;19.47;;;9.03;;
18445;SDS011;9352;50.888;4.466;2023-02-28T07:35:11;18.87;;;8.63;;
18445;SDS011;9352;50.888;4.466;2023-02-28T07:37:40;18.13;;;8.80;;
18445;SDS011;9352;50.888;4.466;2023-02-28T07:40:08;17.40;;;9.10;;
18445;SDS011;9352;50.888;4.466;2023-02-28T07:42:38;15.83;;;8.40;;
18445;SDS011;9352;50.888;4.466;2023-02-28T07:45:06;15.47;;;7.67;;
18445;SDS011;9352;50.888;4.466;2023-02-28T07:47:36;14.17;;;7.60;;
18445;SDS011;9352;50.888;4.466;2023-02-28T07:50:05;13.83;;;7.73;;
18445;SDS011;9352;50.888;4.466;2023-02-28T07:52:32;13.80;;;7.77;;
18445;SDS011;9352;50.888;4.466;2023-02-28T07:54:59;15.23;;;7.10;;
18445;SDS011;9352;50.888;4.466;2023-02-28T07:57:26;13.60;;;7.73;;
18445;SDS011;9352;50.888;4.466;2023-02-28T07:59:53;16.83;;;7.27;;
18445;SDS011;9352;50.888;4.466;2023-02-28T08:02:20;10.33;;;6.60;;
18445;SDS011;9352;50.888;4.466;2023-02-28T08:04:47;11.33;;;6.27;;
18445;SDS011;9352;50.888;4.466;2023-02-28T08:07:15;12.70;;;6.50;;
18445;SDS011;9352;50.888;4.466;2023-02-28T08:09:43;12.40;;;7.00;;
18445;SDS011;9352;50.888;4.466;2023-02-28T08:12:11;14.73;;;7.33;;
18445;SDS011;9352;50.888;4.466;2023-02-28T08:14:38;13.63;;;7.43;;
18445;SDS011;9352;50.888;4.466;2023-02-28T08:17:05;18.73;;;8.00;;
18445;SDS011;9352;50.888;4.466;2023-02-28T08:19:32;15.93;;;6.87;;
18445;SDS011;9352;50.888;4.466;2023-02-28T08:21:59;11.33;;;6.13;;
18445;SDS011;9352;50.888;4.466;2023-02-28T08:24:28;9.63;;;5.97;;
18445;SDS011;9352;50.888;4.466;2023-02-28T08:26:55;12.23;;;5.40;;
18445;SDS011;9352;50.888;4.466;2023-02-28T08:29:22;10.73;;;4.67;;
18445;SDS011;9352;50.888;4.466;2023-02-28T08:31:49;10.80;;;5.20;;
18445;SDS011;9352;50.888;4.466;2023-02-28T08:34:16;8.23;;;4.63;;
18445;SDS011;9352;50.888;4.466;2023-02-28T08:36:43;5.50;;;3.63;;
18445;SDS011;9352;50.888;4.466;2023-02-28T08:39:10;8.60;;;4.10;;
18445;SDS011;9352;50.888;4.466;2023-02-28T08:41:39;4.85;;;4.32;;
18445;SDS011;9352;50.888;4.466;2023-02-28T08:44:09;5.32;;;4.03;;
18445;SDS011;9352;50.888;4.466;2023-02-28T08:46:35;6.22;;;4.43;;
18445;SDS011;9352;50.888;4.466;2023-02-28T08:49:02;6.63;;;4.35;;
18445;SDS011;9352;50.888;4.466;2023-02-28T08:51:29;4.95;;;4.30;;
18445;SDS011;9352;50.888;4.466;2023-02-28T08:53:57;6.15;;;4.05;;
18445;SDS011;9352;50.888;4.466;2023-02-28T08:56:25;4.93;;;4.05;;
18445;SDS011;9352;50.888;4.466;2023-02-28T08:58:55;5.93;;;4.10;;
18445;SDS011;9352;50.888;4.466;2023-02-28T09:01:23;4.57;;;4.00;;
18445;SDS011;9352;50.888;4.466;2023-02-28T09:03:51;4.50;;;4.10;;
18445;SDS011;9352;50.888;4.466;2023-02-28T09:06:19;6.72;;;3.53;;
18445;SDS011;9352;50.888;4.466;2023-02-28T09:08:47;6.20;;;4.03;;
18445;SDS011;9352;50.888;4.466;2023-02-28T09:11:14;5.82;;;4.13;;
18445;SDS011;9352;50.888;4.466;2023-02-28T09:13:41;8.10;;;4.10;;
18445;SDS011;9352;50.888;4.466;2023-02-28T09:16:11;9.43;;;4.65;;
18445;SDS011;9352;50.888;4.466;2023-02-28T09:18:39;5.63;;;3.40;;
18445;SDS011;9352;50.888;4.466;2023-02-28T09:21:07;4.72;;;3.70;;
18445;SDS011;9352;50.888;4.466;2023-02-28T09:23:36;5.35;;;3.92;;
18445;SDS011;9352;50.888;4.466;2023-02-28T09:26:04;6.47;;;3.67;;
18445;SDS011;9352;50.888;4.466;2023-02-28T09:28:31;4.22;;;3.80;;
18445;SDS011;9352;50.888;4.466;2023-02-28T09:30:58;4.22;;;3.20;;
18445;SDS011;9352;50.888;4.466;2023-02-28T09:33:26;6.32;;;3.60;;
18445;SDS011;9352;50.888;4.466;2023-02-28T09:35:57;4.80;;;3.10;;
18445;SDS011;9352;50.888;4.466;2023-02-28T09:38:25;9.68;;;4.93;;
18445;SDS011;9352;50.888;4.466;2023-02-28T09:40:53;4.68;;;3.70;;
18445;SDS011;9352;50.888;4.466;2023-02-28T09:43:24;11.80;;;3.47;;
18445;SDS011;9352;50.888;4.466;2023-02-28T09:45:54;6.65;;;3.30;;
18445;SDS011;9352;50.888;4.466;2023-02-28T09:48:27;5.63;;;3.20;;
18445;SDS011;9352;50.888;4.466;2023-02-28T09:51:00;8.93;;;3.58;;
18445;SDS011;9352;50.888;4.466;2023-02-28T09:53:30;4.18;;;3.55;;
18445;SDS011;9352;50.888;4.466;2023-02-28T09:55:59;5.25;;;3.45;;
18445;SDS011;9352;50.888;4.466;2023-02-28T09:58:31;5.43;;;3.00;;
18445;SDS011;9352;50.888;4.466;2023-02-28T10:01:03;3.50;;;2.90;;
18445;SDS011;9352;50.888;4.466;2023-02-28T10:03:38;3.50;;;3.20;;
18445;SDS011;9352;50.888;4.466;2023-02-28T10:06:07;3.83;;;3.23;;
18445;SDS011;9352;50.888;4.466;2023-02-28T10:08:40;7.18;;;3.38;;
18445;SDS011;9352;50.888;4.466;2023-02-28T10:11:12;4.40;;;3.33;;
18445;SDS011;9352;50.888;4.466;2023-02-28T10:13:46;4.43;;;2.75;;
18445;SDS011;9352;50.888;4.466;2023-02-28T10:16:20;54.17;;;5.18;;
18445;SDS011;9352;50.888;4.466;2023-02-28T10:18:55;5.47;;;2.70;;
18445;SDS011;9352;50.888;4.466;2023-02-28T10:21:26;2.23;;;2.13;;
18445;SDS011;9352;50.888;4.466;2023-02-28T10:24:03;6.53;;;2.70;;
18445;SDS011;9352;50.888;4.466;2023-02-28T10:26:38;2.20;;;2.00;;
18445;SDS011;9352;50.888;4.466;2023-02-28T10:29:07;15.50;;;2.47;;
18445;SDS011;9352;50.888;4.466;2023-02-28T10:31:34;17.40;;;3.47;;
18445;SDS011;9352;50.888;4.466;2023-02-28T10:34:03;1.83;;;1.73;;
18445;SDS011;9352;50.888;4.466;2023-02-28T10:36:31;2.40;;;1.85;;
18445;SDS011;9352;50.888;4.466;2023-02-28T10:38:58;2.00;;;1.90;;
18445;SDS011;9352;50.888;4.466;2023-02-28T10:41:28;1.95;;;1.85;;
18445;SDS011;9352;50.888;4.466;2023-02-28T10:44:12;2.30;;;1.90;;
18445;SDS011;9352;50.888;4.466;2023-02-28T10:46:41;2.10;;;2.03;;
18445;SDS011;9352;50.888;4.466;2023-02-28T10:49:14;2.58;;;2.38;;
18445;SDS011;9352;50.888;4.466;2023-02-28T10:51:45;3.55;;;2.15;;
18445;SDS011;9352;50.888;4.466;2023-02-28T10:54:15;3.40;;;2.17;;
18445;SDS011;9352;50.888;4.466;2023-02-28T10:56:44;3.30;;;2.40;;
18445;SDS011;9352;50.888;4.466;2023-02-28T10:59:26;2.28;;;2.15;;
18445;SDS011;9352;50.888;4.466;2023-02-28T11:01:54;2.22;;;2.10;;
18445;SDS011;9352;50.888;4.466;2023-02-28T11:04:33;2.13;;;2.03;;
18445;SDS011;9352;50.888;4.466;2023-02-28T11:07:04;2.65;;;2.20;;
18445;SDS011;9352;50.888;4.466;2023-02-28T11:09:34;5.82;;;2.88;;
18445;SDS011;9352;50.888;4.466;2023-02-28T11:12:04;5.05;;;2.35;;
18445;SDS011;9352;50.888;4.466;2023-02-28T11:14:35;4.35;;;2.38;;
18445;SDS011;9352;50.888;4.466;2023-02-28T11:17:12;2.70;;;2.50;;
18445;SDS011;9352;50.888;4.466;2023-02-28T11:19:44;2.25;;;2.15;;
18445;SDS011;9352;50.888;4.466;2023-02-28T11:22:16;4.20;;;2.42;;
18445;SDS011;9352;50.888;4.466;2023-02-28T11:24:47;2.53;;;2.30;;
18445;SDS011;9352;50.888;4.466;2023-02-28T11:27:24;4.68;;;2.40;;
18445;SDS011;9352;50.888;4.466;2023-02-28T11:30:00;3.90;;;2.40;;
18445;SDS011;9352;50.888;4.466;2023-02-28T11:32:27;2.70;;;2.50;;
18445;SDS011;9352;50.888;4.466;2023-02-28T11:35:03;7.50;;;2.47;;
18445;SDS011;9352;50.888;4.466;2023-02-28T11:37:42;2.30;;;2.10;;
18445;SDS011;9352;50.888;4.466;2023-02-28T11:40:12;4.70;;;2.50;;
18445;SDS011;9352;50.888;4.466;2023-02-28T11:42:44;5.78;;;2.10;;
18445;SDS011;9352;50.888;4.466;2023-02-28T11:45:28;4.03;;;2.55;;
18445;SDS011;9352;50.888;4.466;2023-02-28T11:48:08;11.98;;;3.08;;
18445;SDS011;9352;50.888;4.466;2023-02-28T11:50:47;2.20;;;2.10;;
18445;SDS011;9352;50.888;4.466;2023-02-28T11:53:28;4.97;;;2.60;;
18445;SDS011;9352;50.888;4.466;2023-02-28T11:56:10;4.88;;;2.80;;
18445;SDS011;9352;50.888;4.466;2023-02-28T11:58:47;3.50;;;2.70;;
18445;SDS011;9352;50.888;4.466;2023-02-28T12:01:24;2.67;;;2.47;;
18445;SDS011;9352;50.888;4.466;2023-02-28T12:03:59;3.88;;;2.63;;
18445;SDS011;9352;50.888;4.466;2023-02-28T12:06:40;2.85;;;2.60;;
18445;SDS011;9352;50.888;4.466;2023-02-28T12:09:17;5.68;;;2.60;;
18445;SDS011;9352;50.888;4.466;2023-02-28T12:11:56;3.50;;;3.20;;
18445;SDS011;9352;50.888;4.466;2023-02-28T12:14:39;3.22;;;2.92;;
18445;SDS011;9352;50.888;4.466;2023-02-28T12:17:32;5.53;;;2.72;;
18445;SDS011;9352;50.888;4.466;2023-02-28T12:20:13;2.97;;;2.70;;
18445;SDS011;9352;50.888;4.466;2023-02-28T12:22:50;7.85;;;2.50;;
18445;SDS011;9352;50.888;4.466;2023-02-28T12:28:24;3.55;;;2.30;;
18445;SDS011;9352;50.888;4.466;2023-02-28T12:30:54;4.50;;;3.50;;
18445;SDS011;9352;50.888;4.466;2023-02-28T12:33:27;4.20;;;2.97;;
18445;SDS011;9352;50.888;4.466;2023-02-28T12:36:00;4.93;;;3.60;;
18445;SDS011;9352;50.888;4.466;2023-02-28T12:38:36;6.10;;;3.83;;
18445;SDS011;9352;50.888;4.466;2023-02-28T12:41:08;9.40;;;2.78;;
18445;SDS011;9352;50.888;4.466;2023-02-28T12:43:40;6.60;;;2.53;;
18445;SDS011;9352;50.888;4.466;2023-02-28T12:46:11;2.47;;;2.20;;
18445;SDS011;9352;50.888;4.466;2023-02-28T12:48:43;3.00;;;2.70;;
18445;SDS011;9352;50.888;4.466;2023-02-28T12:51:14;5.10;;;4.00;;
18445;SDS011;9352;50.888;4.466;2023-02-28T12:53:47;3.30;;;2.97;;
18445;SDS011;9352;50.888;4.466;2023-02-28T12:56:23;2.90;;;2.22;;
18445;SDS011;9352;50.888;4.466;2023-02-28T12:58:59;4.05;;;3.65;;
18445;SDS011;9352;50.888;4.466;2023-02-28T13:01:35;3.00;;;2.70;;
18445;SDS011;9352;50.888;4.466;2023-02-28T13:04:18;2.80;;;2.40;;
18445;SDS011;9352;50.888;4.466;2023-02-28T13:07:16;5.40;;;3.45;;
18445;SDS011;9352;50.888;4.466;2023-02-28T13:09:57;2.40;;;2.30;;
18445;SDS011;9352;50.888;4.466;2023-02-28T13:12:28;2.47;;;2.25;;
18445;SDS011;9352;50.888;4.466;2023-02-28T13:15:01;2.47;;;2.38;;
18445;SDS011;9352;50.888;4.466;2023-02-28T13:17:37;5.95;;;2.60;;
18445;SDS011;9352;50.888;4.466;2023-02-28T13:20:14;2.83;;;2.63;;
18445;SDS011;9352;50.888;4.466;2023-02-28T13:22:44;2.45;;;2.35;;
18445;SDS011;9352;50.888;4.466;2023-02-28T13:31:34;2.60;;;2.40;;
18445;SDS011;9352;50.888;4.466;2023-02-28T13:34:36;2.70;;;2.50;;
18445;SDS011;9352;50.888;4.466;2023-02-28T13:37:31;7.20;;;2.65;;
18445;SDS011;9352;50.888;4.466;2023-02-28T13:40:06;5.80;;;3.00;;
18445;SDS011;9352;50.888;4.466;2023-02-28T13:42:54;3.50;;;2.88;;
18445;SDS011;9352;50.888;4.466;2023-02-28T13:45:25;5.80;;;3.05;;
18445;SDS011;9352;50.888;4.466;2023-02-28T13:47:57;2.40;;;2.30;;
18445;SDS011;9352;50.888;4.466;2023-02-28T13:50:30;6.28;;;2.88;;
18445;SDS011;9352;50.888;4.466;2023-02-28T13:56:08;4.55;;;2.83;;
18445;SDS011;9352;50.888;4.466;2023-02-28T13:58:48;2.70;;;2.55;;
18445;SDS011;9352;50.888;4.466;2023-02-28T14:01:23;2.97;;;2.75;;
18445;SDS011;9352;50.888;4.466;2023-02-28T14:07:08;6.60;;;2.50;;
18445;SDS011;9352;50.888;4.466;2023-02-28T14:09:45;7.97;;;3.03;;
18445;SDS011;9352;50.888;4.466;2023-02-28T14:18:25;4.90;;;2.50;;
18445;SDS011;9352;50.888;4.466;2023-02-28T14:21:01;5.80;;;2.63;;
18445;SDS011;9352;50.888;4.466;2023-02-28T14:23:52;4.53;;;2.85;;
18445;SDS011;9352;50.888;4.466;2023-02-28T14:29:43;3.67;;;2.75;;
18445;SDS011;9352;50.888;4.466;2023-02-28T14:32:32;8.02;;;2.97;;
18445;SDS011;9352;50.888;4.466;2023-02-28T14:35:05;3.47;;;2.75;;
18445;SDS011;9352;50.888;4.466;2023-02-28T14:37:45;2.80;;;2.60;;
18445;SDS011;9352;50.888;4.466;2023-02-28T14:40:16;9.18;;;3.05;;
18445;SDS011;9352;50.888;4.466;2023-02-28T14:42:47;6.13;;;2.73;;
18445;SDS011;9352;50.888;4.466;2023-02-28T14:45:20;5.88;;;2.90;;
18445;SDS011;9352;50.888;4.466;2023-02-28T14:47:48;6.13;;;3.28;;
18445;SDS011;9352;50.888;4.466;2023-02-28T14:50:17;17.13;;;3.55;;
18445;SDS011;9352;50.888;4.466;2023-02-28T14:52:45;3.25;;;2.95;;
18445;SDS011;9352;50.888;4.466;2023-02-28T14:55:13;4.10;;;2.90;;
18445;SDS011;9352;50.888;4.466;2023-02-28T14:57:50;4.10;;;2.88;;
18445;SDS011;9352;50.888;4.466;2023-02-28T15:00:21;15.18;;;3.25;;
18445;SDS011;9352;50.888;4.466;2023-02-28T15:02:50;2.95;;;2.75;;
18445;SDS011;9352;50.888;4.466;2023-02-28T15:05:27;3.25;;;2.95;;
18445;SDS011;9352;50.888;4.466;2023-02-28T15:08:05;6.18;;;3.38;;
18445;SDS011;9352;50.888;4.466;2023-02-28T15:10:38;3.40;;;3.10;;
18445;SDS011;9352;50.888;4.466;2023-02-28T15:13:10;4.80;;;3.08;;
18445;SDS011;9352;50.888;4.466;2023-02-28T15:15:42;5.15;;;3.70;;
18445;SDS011;9352;50.888;4.466;2023-02-28T15:18:15;17.02;;;4.93;;
18445;SDS011;9352;50.888;4.466;2023-02-28T15:20:49;5.97;;;3.00;;
18445;SDS011;9352;50.888;4.466;2023-02-28T15:23:18;6.82;;;3.33;;
18445;SDS011;9352;50.888;4.466;2023-02-28T15:25:48;12.40;;;3.25;;
18445;SDS011;9352;50.888;4.466;2023-02-28T15:28:18;3.97;;;3.10;;
18445;SDS011;9352;50.888;4.466;2023-02-28T15:30:54;10.05;;;3.38;;
18445;SDS011;9352;50.888;4.466;2023-02-28T15:33:24;11.98;;;4.53;;
18445;SDS011;9352;50.888;4.466;2023-02-28T15:36:03;12.60;;;4.70;;
18445;SDS011;9352;50.888;4.466;2023-02-28T15:38:33;6.45;;;3.80;;
18445;SDS011;9352;50.888;4.466;2023-02-28T15:41:03;6.57;;;3.42;;
18445;SDS011;9352;50.888;4.466;2023-02-28T15:43:34;5.68;;;3.00;;
18445;SDS011;9352;50.888;4.466;2023-02-28T15:46:02;3.72;;;2.95;;
18445;SDS011;9352;50.888;4.466;2023-02-28T15:48:32;3.30;;;2.83;;
18445;SDS011;9352;50.888;4.466;2023-02-28T15:51:02;5.68;;;3.03;;
18445;SDS011;9352;50.888;4.466;2023-02-28T15:53:35;9.52;;;3.17;;
18445;SDS011;9352;50.888;4.466;2023-02-28T15:56:05;7.25;;;3.92;;